KDUC

Halliburton Field Airport

Duncan, Oklahoma, USA
METAR KDUC 260315Z AUTO 17004KT 10SM 11/00 A3005 RMK AO2 T01120004
Observed Flight Rules
Feb-26 @ 03:15 UTC (14 minutes ago)
Wind Visibility
170° at 4 knots 10 miles
Temperatures Readings
Current 11°C / 52°F
Dewpoint 0°C / 32°F
Humidity 47%
Altimeter 30.05" Hg
Pressure 1018 hPa
Elevation 339
METAR KDUC 260315Z AUTO 17004KT 10SM 11/00 A3005 RMK AO2 T01120004
Observed Flight Rules
Feb-26 @ 03:15 UTC
(14 minutes ago)
Wind Visibility
170° at 4 knots 10 miles
Temperature Dewpoint
11°C / 52°F 0°C / 32°F
Humidity Altimeter Pressure
47% 30.05" Hg 1018 hPa